Terminal Aerodrome Forecast
Issued by NWS Midland/Odessa, TX

Home | Current Version | Previous Version | Text Only | Print | Product List | Glossary On
Versions: 1 2 3 4 5 6 7 8 9 10 11 12 13 14 15 16 17 18 19 20
000
FTUS44 KMAF 190700 AAA
TAFMAF
TAF AMD
KMAF 190711Z 1907/2006 14008KT P6SM SCT130 BKN200
     FM191300 15013KT P6SM OVC014
     FM191600 17016G26KT P6SM SCT035 OVC120
     FM200100 17008KT P6SM OVC120=

USA.gov is the U.S. government's official web portal to all federal, state and local government web resources and services.